Breen, Colorado
Current Conditions -  °F | °C
As of 8:53 AM on Thursday 23 Oct 2014 (Local Time) from KDRO Reporting Station
Clear Clear  
Wind Chill: 39°   Ceiling: Unl
Heat Index: 42°   Visibility: 10mi
Dew Point: 36°   Wind: 5mph
Humidity: 79%   Direction: 80°E
Pressure: 30.34"   Gusts: NA
Location:  37.1547°N, 108.155°W
Report Text: KDRO 231453Z AUTO 08004KT 10SM CLR 06/02 A3034 RMK AO2 SLP247 T00560022 53012
Loading
Personal Weather Stations






























Interactive Weather Map
Tropical Storm Tracking
New forecast layout! Learn more

10-Day Weather Forecast

Advertisements
Track Severe Weather on mobile